Flight Track Log - Related Links

Times and Time Zones

All times are in EDT time to prevent confusion due to time zone crossing. See the QLK217 flight status page for this flight to view local times or setup timezone preferences in your user account.

Time Position Orientation Groundspeed Altitude Reporting Facility
EDT Latitude Longitude Course Direction KTS MPH feet Rate Location/Type
Sun 05:45:14 AM -33.9502 151.1773 189° South 122 140 500  Level Aus ATC (RADAR)
Sun 05:45:54 AM -33.9740 151.1726 189° South 136 157 1,500 1,636 Climbing Aus ATC (RADAR)
Sun 05:46:53 AM -34.0018 151.1369 227° Southwest 142 163 3,200 1,455 Climbing Aus ATC (RADAR)
Sun 05:47:33 AM -34.0233 151.1119 224° Southwest 161 185 3,900 1,263 Climbing Aus ATC (RADAR)
Sun 05:48:09 AM -34.0451 151.0882 222° Southwest 175 201 4,800 1,629 Climbing Aus ATC (RADAR)
Sun 05:48:43 AM -34.0670 151.0649 221° Southwest 176 203 5,800 1,688 Climbing Aus ATC (RADAR)
Sun 05:49:13 AM -34.0862 151.0446 221° Southwest 178 205 6,600 1,477 Climbing Aus ATC (RADAR)
Sun 05:49:48 AM -34.1085 151.0208 221° Southwest 179 206 7,400 1,371 Climbing Aus ATC (RADAR)
Sun 05:50:23 AM -34.1311 150.9970 221° Southwest 181 208 8,200 1,200 Climbing Aus ATC (RADAR)
Sun 05:50:58 AM -34.1545 150.9722 221° Southwest 188 216 8,800 1,263 Climbing Aus ATC (RADAR)
Sun 05:51:58 AM -34.1946 150.9295 221° Southwest 188 216 10,200 1,429 Climbing Aus ATC (RADAR)
Sun 05:52:43 AM -34.2248 150.8978 221° Southwest 187 215 11,300 1,275 Climbing Aus ATC (RADAR)
Sun 05:53:18 AM -34.2489 150.8724 221° Southwest 193 222 11,900 1,114 Climbing Aus ATC (RADAR)
Sun 05:53:53 AM -34.2722 150.8476 221° Southwest 189 217 12,600 1,015 Climbing Aus ATC (RADAR)
Sun 05:54:23 AM -34.2927 150.8259 221° Southwest 193 222 13,000 844 Climbing Aus ATC (RADAR)
Sun 05:54:57 AM -34.3170 150.8000 221° Southwest 196 226 13,500 1,043 Climbing Aus ATC (RADAR)
Sun 05:55:32 AM -34.3398 150.7725 225° Southwest 195 224 14,200 988 Climbing Aus ATC (RADAR)
Sun 05:56:22 AM -34.3669 150.7259 235° Southwest 199 229 14,900 918 Climbing Aus ATC (RADAR)
Sun 05:56:57 AM -34.3863 150.6934 234° Southwest 198 228 15,500 1,040 Climbing Aus ATC (RADAR)
Sun 05:57:37 AM -34.4085 150.6573 233° Southwest 196 226 16,200 1,020 Climbing Aus ATC (RADAR)
Sun 05:58:37 AM -34.4412 150.6049 233° Southwest 191 220 17,200 1,020 Climbing Aus ATC (RADAR)
Sun 05:59:17 AM -34.4626 150.5701 233° Southwest 188 216 17,900 880 Climbing Aus ATC (RADAR)
Sun 05:59:52 AM -34.4813 150.5389 234° Southwest 192 221 18,300 771 Climbing Aus ATC (RADAR)
Sun 06:00:27 AM -34.5006 150.5069 234° Southwest 195 224 18,800 800 Climbing Aus ATC (RADAR)
Sun 06:01:07 AM -34.5224 150.4706 234° Southwest 196 226 19,300 750 Climbing Aus ATC (RADAR)
Sun 06:02:03 AM -34.5531 150.4203 233° Southwest 199 229 20,000 695 Climbing Aus ATC (RADAR)
Sun 06:02:42 AM -34.5726 150.3882 233° Southwest 199 229 20,400 250 Climbing Aus ATC (RADAR)
Sun 06:03:15 AM -34.5937 150.3533 234° Southwest 216 249 20,300 -88 Descending Aus ATC (RADAR)
Sun 06:03:50 AM -34.6162 150.3154 234° Southwest 232 267 20,300  Level Aus ATC (RADAR)
Sun 06:04:27 AM -34.6430 150.2704 234° Southwest 243 280 20,300  Level Aus ATC (RADAR)
Sun 06:05:01 AM -34.6641 150.2361 233° Southwest 249 287 20,300  Level Aus ATC (RADAR)
Sun 06:05:46 AM -34.6994 150.1776 234° Southwest 254 292 20,300  Level Aus ATC (RADAR)
Sun 06:06:46 AM -34.7423 150.1061 234° Southwest 257 296 20,300  Level Aus ATC (RADAR)
Sun 06:07:31 AM -34.7744 150.0533 234° Southwest 255 293 20,300  Level Aus ATC (RADAR)
Sun 06:08:02 AM -34.7956 150.0177 234° Southwest 256 295 20,300  Level Aus ATC (RADAR)
Sun 06:08:36 AM -34.8202 149.9764 234° Southwest 256 295 20,300  Level Aus ATC (RADAR)
Sun 06:09:11 AM -34.8450 149.9354 234° Southwest 255 293 20,300  Level Aus ATC (RADAR)
Sun 06:09:46 AM -34.8694 149.8941 234° Southwest 255 293 20,300  Level Aus ATC (RADAR)
Sun 06:10:21 AM -34.8936 149.8531 234° Southwest 255 293 20,300  Level Aus ATC (RADAR)
Sun 06:10:51 AM -34.9148 149.8176 234° Southwest 256 295 20,300  Level Aus ATC (RADAR)
Sun 06:11:26 AM -34.9396 149.7763 234° Southwest 257 296 20,300  Level Aus ATC (RADAR)
Sun 06:12:01 AM -34.9638 149.7348 234° Southwest 256 295 20,300  Level Aus ATC (RADAR)
Sun 06:12:36 AM -34.9886 149.6938 234° Southwest 254 292 20,300  Level Aus ATC (RADAR)
Sun 06:13:11 AM -35.0130 149.6523 234° Southwest 255 293 20,300  Level Aus ATC (RADAR)
Sun 06:13:46 AM -35.0378 149.6107 234° Southwest 257 296 20,300  Level Aus ATC (RADAR)
Sun 06:14:50 AM -35.0828 149.5339 234° Southwest 253 291 20,300  Level Aus ATC (RADAR)
Sun 06:15:25 AM -35.1073 149.4922 234° Southwest 255 293 20,300  Level Aus ATC (RADAR)
Sun 06:16:01 AM -35.1321 149.4503 234° Southwest 258 297 20,300  Level Aus ATC (RADAR)
Sun 06:16:35 AM -35.1571 149.4093 233° Southwest 255 293 20,300  Level Aus ATC (RADAR)
Sun 06:17:20 AM -35.1883 149.3553 235° Southwest 256 295 20,300  Level Aus ATC (RADAR)
Sun 06:18:20 AM -35.2296 149.2836 235° Southwest 255 293 20,300  Level Aus ATC (RADAR)
Sun 06:19:05 AM -35.2608 149.2310 234° Southwest 251 289 20,300  Level Aus ATC (RADAR)
Sun 06:19:40 AM -35.2849 149.1888 235° Southwest 258 297 20,300  Level Aus ATC (RADAR)
Sun 06:20:15 AM -35.3027 149.1411 246° West 261 300 20,300  Level Aus ATC (RADAR)
Sun 06:20:55 AM -35.3216 149.0854 247° West 263 303 20,300  Level Aus ATC (RADAR)
Sun 06:21:35 AM -35.3411 149.0306 246° West 259 298 20,300  Level Aus ATC (RADAR)
Sun 06:22:15 AM -35.3614 148.9761 245° Southwest 260 299 20,300  Level Aus ATC (RADAR)
Sun 06:22:50 AM -35.3790 148.9284 246° West 260 299 20,300  Level Aus ATC (RADAR)
Sun 06:23:24 AM -35.3968 148.8801 246° West 263 303 20,300  Level Aus ATC (RADAR)
Sun 06:23:54 AM -35.4115 148.8389 246° West 261 300 20,300  Level Aus ATC (RADAR)
Sun 06:24:29 AM -35.4287 148.7906 246° West 262 302 20,300  Level Aus ATC (RADAR)
Sun 06:24:59 AM -35.4435 148.7497 246° West 260 299 20,300  Level Aus ATC (RADAR)
Sun 06:25:34 AM -35.4608 148.7018 246° West 260 299 20,300  Level Aus ATC (RADAR)
Sun 06:26:09 AM -35.4779 148.6539 246° West 260 299 20,300  Level Aus ATC (RADAR)
Sun 06:26:44 AM -35.4950 148.6064 246° West 258 297 20,300  Level Aus ATC (RADAR)
Sun 06:27:19 AM -35.5121 148.5589 246° West 259 298 20,300  Level Aus ATC (RADAR)
Sun 06:27:54 AM -35.5294 148.5116 246° West 259 298 20,300  Level Aus ATC (RADAR)
Sun 06:28:29 AM -35.5478 148.4651 244° Southwest 258 297 20,300  Level Aus ATC (RADAR)
Sun 06:29:09 AM -35.5691 148.4122 244° Southwest 255 293 20,300 80 Level Aus ATC (RADAR)
Sun 06:29:44 AM -35.5877 148.3657 244° Southwest 256 295 20,400 75 Climbing Aus ATC (RADAR)
Sun 06:30:29 AM -35.6111 148.3067 244° Southwest 254 292 20,400 -57 Level Aus ATC (RADAR)
Sun 06:31:29 AM -35.6428 148.2265 244° Southwest 257 296 20,300 -61 Descending Aus ATC (RADAR)
Sun 06:32:08 AM -35.6633 148.1744 244° Southwest 251 289 20,300  Level Aus ATC (RADAR)
Sun 06:32:43 AM -35.6815 148.1277 244° Southwest 255 293 20,300 -554 Level Aus ATC (RADAR)
Sun 06:33:13 AM -35.6976 148.0871 244° Southwest 262 302 19,700 -1,371 Descending Aus ATC (RADAR)
Sun 06:33:53 AM -35.7181 148.0311 246° West 269 310 18,700 -1,440 Descending Aus ATC (RADAR)
Sun 06:34:28 AM -35.7369 147.9828 244° Southwest 268 308 17,900 -1,360 Descending Aus ATC (RADAR)
Sun 06:35:08 AM -35.7580 147.9278 245° Southwest 266 306 17,000 -1,380 Descending Aus ATC (RADAR)
Sun 06:36:08 AM -35.7905 147.8447 244° Southwest 269 310 15,600 -1,429 Descending Aus ATC (RADAR)
Sun 06:36:53 AM -35.8153 147.7832 244° Southwest 268 308 14,500 -1,429 Descending Aus ATC (RADAR)
Sun 06:37:53 AM -35.8483 147.7006 244° Southwest 266 306 13,100 -1,380 Descending Aus ATC (RADAR)
Sun 06:38:33 AM -35.8694 147.6464 244° Southwest 263 303 12,200 -1,520 Descending Aus ATC (RADAR)
Sun 06:39:08 AM -35.8878 147.5991 244° Southwest 262 302 11,200 -1,543 Descending Aus ATC (RADAR)
Sun 06:39:43 AM -35.9050 147.5523 246° West 258 297 10,400 -1,477 Descending Aus ATC (RADAR)
Sun 06:40:13 AM -35.9195 147.5141 245° Southwest 247 284 9,600 -1,300 Descending Aus ATC (RADAR)
Sun 06:40:43 AM -35.9332 147.4775 245° Southwest 237 273 9,100 -1,200 Descending Aus ATC (RADAR)
Sun 06:41:23 AM -35.9518 147.4319 243° Southwest 226 260 8,200 -1,280 Descending Aus ATC (RADAR)
Sun 06:41:58 AM -35.9673 147.3913 245° Southwest 226 260 7,500 -1,277 Descending Aus ATC (RADAR)
Sun 06:42:57 AM -35.9965 147.3178 244° Southwest 240 276 6,200 -1,333 Descending Aus ATC (RADAR)
Sun 06:43:37 AM -36.0099 147.2668 252° West 228 262 5,300 -1,350 Descending Aus ATC (RADAR)
Sun 06:46:52 AM -36.0540 147.0323 257° West 500 -1,477 Descending Aus ATC (Calculated)
Sun 06:48:00 AM -36.0678 146.9581 255° West  Level Estimated
Sun 06:49:00 AM -36.0678 146.9581 93° East  Level Estimated
Sun 06:50:00 AM -36.0678 146.9581 93° East  Level Estimated
Sun 06:51:00 AM -36.0676 146.9582 274° West  Level FlightAware Approximate
Sun 06:52:00 AM -36.0678 146.9581 274° West  Level Estimated

Login

Don't have an account? Register now (free) for customized features, flight alerts, and more!